createdAt,value
2023-04-02T00:00:52.819Z,85.1030
2023-04-02T00:01:54.241Z,85.3773
2023-04-02T00:02:55.730Z,85.2965
2023-04-02T00:03:57.173Z,85.1135
2023-04-02T00:04:58.598Z,84.8161
2023-04-02T00:05:59.964Z,84.7465
2023-04-02T00:07:01.327Z,84.9648
2023-04-02T00:08:02.740Z,84.5398
2023-04-02T00:09:04.116Z,84.1321
2023-04-02T00:10:05.549Z,83.7814
2023-04-02T00:11:06.958Z,83.9824
2023-04-02T00:12:08.339Z,84.6369
2023-04-02T00:13:09.735Z,84.6146
2023-04-02T00:14:11.186Z,84.5770
2023-04-02T00:15:12.635Z,84.6685
2023-04-02T00:16:14.018Z,84.5333
2023-04-02T00:17:15.437Z,84.3875
2023-04-02T00:18:16.902Z,84.7952
2023-04-02T00:19:18.279Z,84.8374
2023-04-02T00:20:19.628Z,84.7309
2023-04-02T00:21:20.970Z,84.4003
2023-04-02T00:22:22.377Z,84.2196
2023-04-02T00:23:23.770Z,84.1088
2023-04-02T00:24:25.199Z,84.4788
2023-04-02T00:25:26.576Z,84.6849
2023-04-02T00:26:28.037Z,84.7706
2023-04-02T00:27:29.363Z,85.0499
2023-04-02T00:28:30.749Z,85.2620
2023-04-02T00:29:32.133Z,85.6106
2023-04-02T00:30:33.508Z,85.8310
2023-04-02T00:31:34.900Z,86.3438
2023-04-02T00:32:36.307Z,86.5957
2023-04-02T00:33:37.742Z,86.8766
2023-04-02T00:34:39.204Z,87.2730
2023-04-02T00:35:40.660Z,87.6231
2023-04-02T00:36:42.171Z,87.6012
2023-04-02T00:37:43.571Z,87.8076
2023-04-02T00:38:46.665Z,87.9619
2023-04-02T00:39:46.425Z,87.8790
2023-04-02T00:40:47.774Z,87.9561
2023-04-02T00:41:49.197Z,87.9487
2023-04-02T00:42:50.607Z,87.8599
2023-04-02T00:43:52.051Z,88.0439
2023-04-02T00:44:53.504Z,88.1473
2023-04-02T00:45:54.923Z,88.2810
2023-04-02T00:46:56.354Z,88.3504
2023-04-02T00:47:57.854Z,88.3821
2023-04-02T00:48:59.241Z,88.3640
2023-04-02T00:50:00.717Z,88.4982
2023-04-02T00:51:02.093Z,88.5801
2023-04-02T00:52:03.531Z,88.4685
2023-04-02T00:53:04.920Z,88.4647
2023-04-02T00:54:06.378Z,88.6484
2023-04-02T00:55:07.793Z,88.7440
2023-04-02T00:56:09.280Z,88.8782
2023-04-02T00:57:10.653Z,88.9149
2023-04-02T00:58:12.131Z,88.9047
2023-04-02T00:59:13.495Z,88.9681
2023-04-02T01:00:14.979Z,88.7492
2023-04-02T01:01:16.395Z,88.6492
2023-04-02T01:02:18.070Z,88.7324
2023-04-02T01:03:19.666Z,88.9281
2023-04-02T01:04:21.515Z,88.8530
2023-04-02T01:05:23.068Z,88.8399
2023-04-02T01:06:24.471Z,88.9254
2023-04-02T01:07:26.112Z,88.7535
2023-04-02T01:08:27.534Z,88.5634
2023-04-02T01:09:28.882Z,88.5342
2023-04-02T01:10:30.343Z,88.5656
2023-04-02T01:11:31.879Z,88.5182
2023-04-02T01:12:33.381Z,88.5297
2023-04-02T01:13:34.782Z,88.3120
2023-04-02T01:14:36.204Z,88.4590
2023-04-02T01:15:38.110Z,88.5292
2023-04-02T01:16:39.782Z,88.3358
2023-04-02T01:17:41.182Z,88.3023
2023-04-02T01:18:42.583Z,88.5425
2023-04-02T01:19:43.938Z,88.8041
2023-04-02T01:20:45.384Z,88.7139
2023-04-02T01:21:46.796Z,88.6238
2023-04-02T01:22:48.256Z,88.2705
2023-04-02T01:23:49.605Z,88.0750
2023-04-02T01:24:50.993Z,88.2391
2023-04-02T01:25:52.449Z,88.2875
2023-04-02T01:26:53.777Z,87.9290
2023-04-02T01:27:55.182Z,88.0159
2023-04-02T01:28:56.575Z,87.9741
2023-04-02T01:29:57.955Z,87.8209
2023-04-02T01:30:59.346Z,87.7772
2023-04-02T01:32:00.791Z,87.5772
2023-04-02T01:33:02.255Z,87.6758
2023-04-02T01:34:03.674Z,87.7051
2023-04-02T01:35:05.039Z,87.7309
2023-04-02T01:36:06.419Z,87.8419
2023-04-02T01:37:07.813Z,87.7196
2023-04-02T01:38:09.205Z,87.7882
2023-04-02T01:39:10.628Z,87.8842
2023-04-02T01:40:12.023Z,88.0469
2023-04-02T01:41:13.407Z,88.0797
2023-04-02T01:42:14.824Z,88.1064
2023-04-02T01:43:16.195Z,87.9604
2023-04-02T01:44:17.553Z,87.8299
2023-04-02T01:45:18.955Z,87.8316
2023-04-02T01:46:20.435Z,87.8875
2023-04-02T01:47:21.768Z,87.7213
2023-04-02T01:48:23.208Z,87.5095
2023-04-02T01:49:24.573Z,87.2986
2023-04-02T01:50:25.977Z,87.3107
2023-04-02T01:51:27.394Z,86.8578
2023-04-02T01:52:28.882Z,86.8024
2023-04-02T01:53:30.222Z,86.9997
2023-04-02T01:54:31.665Z,86.8424
2023-04-02T01:55:33.328Z,86.7273
2023-04-02T01:56:35.179Z,86.8168
2023-04-02T01:57:36.572Z,86.5654
2023-04-02T01:58:37.950Z,86.3284
2023-04-02T01:59:39.369Z,86.0405
2023-04-02T02:00:40.902Z,86.0779
2023-04-02T02:01:42.467Z,86.3636
2023-04-02T02:02:43.918Z,86.7512
2023-04-02T02:03:45.400Z,86.7251
2023-04-02T02:04:46.853Z,86.4551
2023-04-02T02:05:48.218Z,86.3490
2023-04-02T02:06:49.632Z,86.5414
2023-04-02T02:07:51.039Z,86.7021
2023-04-02T02:08:52.440Z,86.7873
2023-04-02T02:09:53.787Z,86.8708
2023-04-02T02:10:55.194Z,86.4814
2023-04-02T02:11:56.564Z,86.5924
2023-04-02T02:12:57.998Z,86.6657
2023-04-02T02:13:59.356Z,86.8070
2023-04-02T02:15:00.814Z,86.9076
2023-04-02T02:16:02.189Z,87.0403
2023-04-02T02:17:03.575Z,86.9640
2023-04-02T02:18:04.927Z,86.6084
2023-04-02T02:19:06.322Z,86.2355
2023-04-02T02:20:07.741Z,86.2249
2023-04-02T02:21:09.114Z,86.5154
2023-04-02T02:22:10.547Z,86.5328
2023-04-02T02:23:11.936Z,86.5042
2023-04-02T02:24:13.414Z,86.6779
2023-04-02T02:25:14.827Z,86.8014
2023-04-02T02:26:16.238Z,86.9132
2023-04-02T02:27:17.587Z,86.4872
2023-04-02T02:28:19.002Z,85.9505
2023-04-02T02:29:20.384Z,85.9182
2023-04-02T02:30:21.770Z,86.4183
2023-04-02T02:31:23.270Z,86.5867
2023-04-02T02:32:24.701Z,86.0164
2023-04-02T02:33:26.079Z,85.6543
2023-04-02T02:34:27.469Z,85.4768
2023-04-02T02:35:28.983Z,85.6095
2023-04-02T02:36:30.364Z,85.7807
2023-04-02T02:37:31.741Z,85.9398
2023-04-02T02:38:33.147Z,85.7924
2023-04-02T02:39:34.635Z,85.5921
2023-04-02T02:40:36.049Z,85.1913
2023-04-02T02:41:37.441Z,85.3123
2023-04-02T02:42:38.832Z,85.4986
2023-04-02T02:43:40.272Z,85.4851
2023-04-02T02:44:41.670Z,85.1960
2023-04-02T02:45:43.071Z,85.2890
2023-04-02T02:46:44.437Z,85.4116
2023-04-02T02:47:45.885Z,85.3946
2023-04-02T02:48:47.217Z,85.6327
2023-04-02T02:49:48.632Z,85.4690
2023-04-02T02:50:50.060Z,85.4374
2023-04-02T02:51:51.441Z,85.6419
2023-04-02T02:52:52.849Z,85.6448
2023-04-02T02:53:54.249Z,85.7322
2023-04-02T02:54:55.917Z,85.6789
2023-04-02T02:55:57.331Z,85.6100
2023-04-02T02:56:58.716Z,85.4256
2023-04-02T02:58:00.142Z,85.6366
2023-04-02T02:59:01.516Z,85.6244
2023-04-02T03:00:02.962Z,85.5961
2023-04-02T03:01:04.402Z,85.4550
2023-04-02T03:02:05.762Z,85.5662
2023-04-02T03:03:07.238Z,85.1208
2023-04-02T03:04:09.000Z,85.0129
2023-04-02T03:05:10.674Z,85.0082
2023-04-02T03:06:12.100Z,84.7455
2023-04-02T03:07:13.485Z,84.8482
2023-04-02T03:08:14.975Z,84.9807
2023-04-02T03:09:16.398Z,85.1053
2023-04-02T03:10:17.816Z,84.8569
2023-04-02T03:11:19.277Z,84.8253
2023-04-02T03:12:20.685Z,84.9816
2023-04-02T03:13:22.066Z,84.9346
2023-04-02T03:14:23.446Z,84.7963
2023-04-02T03:15:24.798Z,85.0800
2023-04-02T03:16:26.297Z,85.0394
2023-04-02T03:17:27.732Z,85.4511
2023-04-02T03:18:29.155Z,85.5484
2023-04-02T03:19:30.566Z,85.5858
2023-04-02T03:20:31.951Z,85.3148
2023-04-02T03:21:33.399Z,84.8870
2023-04-02T03:22:34.776Z,84.7691
2023-04-02T03:23:36.164Z,84.8502
2023-04-02T03:24:37.524Z,84.9191
2023-04-02T03:25:38.979Z,84.9743
2023-04-02T03:26:40.308Z,84.9428
2023-04-02T03:27:41.755Z,84.9388
2023-04-02T03:28:43.135Z,84.9995
2023-04-02T03:29:44.575Z,85.1522
2023-04-02T03:30:46.028Z,84.9132
2023-04-02T03:31:47.585Z,84.9219
2023-04-02T03:32:49.112Z,84.9823
2023-04-02T03:33:50.596Z,84.9049
2023-04-02T03:34:52.059Z,84.7948
2023-04-02T03:35:53.611Z,84.6763
2023-04-02T03:36:55.065Z,84.6445
2023-04-02T03:37:56.547Z,84.7536
2023-04-02T03:38:58.105Z,84.7445
2023-04-02T03:39:59.594Z,84.7216
2023-04-02T03:41:01.173Z,84.6461
2023-04-02T03:42:02.553Z,84.7776
2023-04-02T03:43:04.015Z,84.9587
2023-04-02T03:44:05.514Z,84.8908
2023-04-02T03:45:07.156Z,85.0679
2023-04-02T03:46:08.926Z,84.7313
2023-04-02T03:47:10.381Z,84.7654
2023-04-02T03:48:11.841Z,85.1358
2023-04-02T03:49:13.324Z,85.1718
2023-04-02T03:50:14.796Z,85.4123
2023-04-02T03:51:16.307Z,85.3004
2023-04-02T03:52:17.779Z,85.2241
2023-04-02T03:53:19.242Z,85.2939
2023-04-02T03:54:20.720Z,85.5435
2023-04-02T03:55:22.253Z,85.5672
2023-04-02T03:56:23.636Z,85.6760
2023-04-02T03:57:25.174Z,85.7431
2023-04-02T03:58:26.721Z,85.7635
2023-04-02T03:59:28.283Z,85.7213
2023-04-02T04:00:29.703Z,85.8841
2023-04-02T04:01:31.209Z,85.8681
2023-04-02T04:02:32.652Z,85.8823
2023-04-02T04:03:34.181Z,85.9004
2023-04-02T04:04:35.730Z,85.7527
2023-04-02T04:05:37.456Z,85.5845
2023-04-02T04:06:39.097Z,85.6103
2023-04-02T04:07:40.520Z,85.6499
2023-04-02T04:08:41.949Z,84.0992
2023-04-02T04:09:43.413Z,82.1936
2023-04-02T04:10:44.890Z,82.1772
2023-04-02T04:11:46.346Z,82.6615
2023-04-02T04:12:47.915Z,82.7389
2023-04-02T04:13:49.384Z,82.6039
2023-04-02T04:14:50.851Z,82.2528
2023-04-02T04:15:52.275Z,82.3780
2023-04-02T04:16:54.003Z,82.4387
2023-04-02T04:17:55.950Z,82.6818
2023-04-02T04:18:57.396Z,82.7124
2023-04-02T04:19:58.856Z,82.4451
2023-04-02T04:21:00.396Z,82.2544
2023-04-02T04:22:01.850Z,82.4189
2023-04-02T04:23:03.268Z,82.1175
2023-04-02T04:24:04.863Z,82.3822
2023-04-02T04:25:06.285Z,82.6082
2023-04-02T04:26:07.731Z,82.7301
2023-04-02T04:27:09.182Z,82.6550
2023-04-02T04:28:10.653Z,82.4112
2023-04-02T04:29:12.070Z,82.5189
2023-04-02T04:30:13.641Z,82.5000
2023-04-02T04:31:15.103Z,82.6824
2023-04-02T04:32:16.609Z,82.8923
2023-04-02T04:33:18.246Z,83.1818
2023-04-02T04:34:19.697Z,83.4040
2023-04-02T04:35:21.144Z,83.1888
2023-04-02T04:36:22.586Z,83.0486
2023-04-02T04:37:24.077Z,82.9596
2023-04-02T04:38:25.562Z,83.1263
2023-04-02T04:39:27.154Z,82.8821
2023-04-02T04:40:28.602Z,82.6794
2023-04-02T04:41:30.049Z,82.6930
2023-04-02T04:42:31.491Z,83.0781
2023-04-02T04:43:32.982Z,83.0361
2023-04-02T04:44:34.445Z,82.9310
2023-04-02T04:45:36.221Z,82.6897
2023-04-02T04:46:37.882Z,82.6492
2023-04-02T04:47:39.373Z,82.5725
2023-04-02T04:48:40.813Z,82.2551
2023-04-02T04:49:42.266Z,82.3445
2023-04-02T04:50:43.705Z,82.5631
2023-04-02T04:51:45.179Z,82.5297
2023-04-02T04:52:46.632Z,82.0611
2023-04-02T04:53:48.185Z,82.3358
2023-04-02T04:54:49.663Z,82.2785
2023-04-02T04:55:51.104Z,82.4787
2023-04-02T04:56:52.606Z,82.6488
2023-04-02T04:57:54.040Z,82.6886
2023-04-02T04:58:55.454Z,82.3821
2023-04-02T04:59:56.878Z,81.9687
2023-04-02T05:00:58.321Z,82.1930
2023-04-02T05:01:59.793Z,82.2925
2023-04-02T05:03:01.373Z,82.2745
2023-04-02T05:04:02.791Z,82.5588
2023-04-02T05:05:04.317Z,82.7807
2023-04-02T05:06:05.764Z,82.9291
2023-04-02T05:07:07.235Z,82.6376
2023-04-02T05:08:08.664Z,82.7347
2023-04-02T05:09:10.080Z,82.8926
2023-04-02T05:10:11.563Z,82.3731
2023-04-02T05:11:13.045Z,82.0537
2023-04-02T05:12:14.493Z,82.4129
2023-04-02T05:13:15.913Z,82.5340
2023-04-02T05:14:17.416Z,82.4831
2023-04-02T05:15:18.867Z,82.5329
2023-04-02T05:16:20.383Z,82.6297
2023-04-02T05:17:21.870Z,82.6890
2023-04-02T05:18:23.372Z,82.4107
2023-04-02T05:19:24.824Z,82.4507
2023-04-02T05:20:26.263Z,82.4918
2023-04-02T05:21:27.669Z,82.3227
2023-04-02T05:22:29.109Z,82.5529
2023-04-02T05:23:30.614Z,82.4867
2023-04-02T05:24:31.998Z,82.4157
2023-04-02T05:25:33.669Z,82.3322
2023-04-02T05:26:35.183Z,82.4693
2023-04-02T05:27:36.681Z,82.6151
2023-04-02T05:28:38.132Z,82.7016
2023-04-02T05:29:39.647Z,82.4262
2023-04-02T05:30:41.251Z,81.8666
2023-04-02T05:31:42.795Z,81.4751
2023-04-02T05:32:44.367Z,81.5744
2023-04-02T05:33:45.866Z,81.6847
2023-04-02T05:34:47.343Z,81.9818
2023-04-02T05:35:48.867Z,82.1833
2023-04-02T05:36:50.356Z,82.1423
2023-04-02T05:37:51.809Z,81.7121
2023-04-02T05:38:53.277Z,81.8214
2023-04-02T05:39:54.792Z,81.7823
2023-04-02T05:40:56.275Z,81.8467
2023-04-02T05:41:57.761Z,81.8918
2023-04-02T05:42:59.197Z,81.9021
2023-04-02T05:44:00.665Z,81.6025
2023-04-02T05:45:02.134Z,81.6847
2023-04-02T05:46:03.804Z,81.9007
2023-04-02T05:47:05.244Z,81.9633
2023-04-02T05:48:06.748Z,81.9198
2023-04-02T05:49:08.183Z,81.6816
2023-04-02T05:50:09.663Z,81.7165
2023-04-02T05:51:11.094Z,81.8358
2023-04-02T05:52:12.556Z,81.9650
2023-04-02T05:53:14.095Z,81.9555
2023-04-02T05:54:15.563Z,81.8761
2023-04-02T05:55:17.386Z,81.8043
2023-04-02T05:56:18.813Z,81.8368
2023-04-02T05:57:20.270Z,81.7333
2023-04-02T05:58:35.573Z,81.7321
2023-04-02T05:59:21.738Z,81.7393
2023-04-02T06:00:23.180Z,81.8231
2023-04-02T06:01:24.620Z,81.6762
2023-04-02T06:02:26.086Z,81.5180
2023-04-02T06:03:27.745Z,81.4929
2023-04-02T06:04:29.223Z,81.4205
2023-04-02T06:05:30.641Z,81.6228
2023-04-02T06:06:32.075Z,81.7464
2023-04-02T06:07:33.516Z,81.6001
2023-04-02T06:08:35.057Z,81.7063
2023-04-02T06:09:36.519Z,81.6152
2023-04-02T06:10:37.972Z,81.7518
2023-04-02T06:11:39.417Z,81.6398
2023-04-02T06:12:40.922Z,81.7911
2023-04-02T06:13:42.406Z,81.6480
2023-04-02T06:14:43.935Z,81.5788
2023-04-02T06:15:47.247Z,81.1945
2023-04-02T06:16:46.801Z,81.2819
2023-04-02T06:17:48.301Z,81.4215
2023-04-02T06:18:49.789Z,81.4887
2023-04-02T06:19:51.251Z,81.7386
2023-04-02T06:20:52.720Z,81.5332
2023-04-02T06:21:54.124Z,81.1452
2023-04-02T06:22:55.623Z,81.2500
2023-04-02T06:23:57.102Z,81.1150
2023-04-02T06:24:58.543Z,81.0544
2023-04-02T06:26:00.013Z,80.7146
2023-04-02T06:27:01.491Z,80.6709
2023-04-02T06:28:02.982Z,80.5110
2023-04-02T06:29:04.465Z,80.5021
2023-04-02T06:30:05.917Z,80.6000
2023-04-02T06:31:07.552Z,80.2785
2023-04-02T06:32:08.992Z,80.2642
2023-04-02T06:33:10.521Z,80.4412
2023-04-02T06:34:12.000Z,80.6287
2023-04-02T06:35:13.442Z,80.6564
2023-04-02T06:36:14.878Z,80.9082
2023-04-02T06:37:16.252Z,80.8164
2023-04-02T06:38:17.745Z,80.8031
2023-04-02T06:39:19.184Z,80.9979
2023-04-02T06:40:20.640Z,80.6492
2023-04-02T06:41:22.861Z,80.0901
2023-04-02T06:42:24.331Z,80.4527
2023-04-02T06:43:25.780Z,80.6890
2023-04-02T06:44:27.254Z,80.8287
2023-04-02T06:45:28.681Z,80.5029
2023-04-02T06:46:30.172Z,79.8925
2023-04-02T06:47:31.704Z,79.9897
2023-04-02T06:48:33.280Z,80.2455
2023-04-02T06:49:34.701Z,80.1370
2023-04-02T06:50:36.168Z,79.9434
2023-04-02T06:51:37.609Z,79.7778
2023-04-02T06:52:39.072Z,80.0057
2023-04-02T06:53:40.517Z,80.0626
2023-04-02T06:54:41.948Z,79.9861
2023-04-02T06:55:43.422Z,80.1662
2023-04-02T06:56:44.779Z,80.1521
2023-04-02T06:57:46.244Z,80.3612
2023-04-02T06:58:47.709Z,80.1765
2023-04-02T06:59:49.132Z,79.8365
2023-04-02T07:00:50.513Z,79.7753
2023-04-02T07:01:51.998Z,79.5481
2023-04-02T07:02:55.152Z,79.4815
2023-04-02T07:03:58.447Z,79.6645
2023-04-02T07:05:00.864Z,78.8586
2023-04-02T07:06:02.273Z,78.5616
2023-04-02T07:07:03.734Z,78.2651
2023-04-02T07:08:05.208Z,78.5334
2023-04-02T07:09:07.641Z,78.2329
2023-04-02T07:10:09.172Z,78.1302
2023-04-02T07:11:10.649Z,78.2285
2023-04-02T07:12:12.062Z,78.6018
2023-04-02T07:13:13.533Z,78.9375
2023-04-02T07:14:15.002Z,78.3472
2023-04-02T07:15:16.586Z,78.1950
2023-04-02T07:16:18.093Z,78.6169
2023-04-02T07:17:19.640Z,78.2750
2023-04-02T07:18:21.198Z,78.2467
2023-04-02T07:19:22.769Z,78.3413
2023-04-02T07:20:24.238Z,78.3383
2023-04-02T07:21:25.683Z,79.0517
2023-04-02T07:22:27.091Z,78.5366
2023-04-02T07:23:28.560Z,78.5276
2023-04-02T07:24:30.030Z,78.3459
2023-04-02T07:25:31.487Z,77.9693
2023-04-02T07:26:32.932Z,77.4454
2023-04-02T07:27:34.379Z,77.5081
2023-04-02T07:28:35.859Z,77.5017
2023-04-02T07:29:37.271Z,77.5125
2023-04-02T07:30:38.688Z,77.1292
2023-04-02T07:31:40.230Z,76.6818
2023-04-02T07:32:41.674Z,76.6885
2023-04-02T07:33:43.081Z,77.1527
2023-04-02T07:34:44.485Z,77.3615
2023-04-02T07:35:46.028Z,77.2594
2023-04-02T07:36:47.441Z,76.9075
2023-04-02T07:37:48.894Z,76.5278
2023-04-02T07:38:50.303Z,77.1018
2023-04-02T07:39:51.809Z,76.9009
2023-04-02T07:40:53.238Z,76.5956
2023-04-02T07:41:54.568Z,75.8659
2023-04-02T07:42:56.038Z,75.6648
2023-04-02T07:43:57.524Z,75.8580
2023-04-02T07:44:58.926Z,75.7958
2023-04-02T07:46:00.339Z,76.1298
2023-04-02T07:47:01.834Z,76.4068
2023-04-02T07:48:03.495Z,76.6513
2023-04-02T07:49:05.010Z,76.2552
2023-04-02T07:50:06.491Z,75.8566
2023-04-02T07:51:07.919Z,75.3497
2023-04-02T07:52:09.373Z,74.9941
2023-04-02T07:53:10.786Z,74.9889
2023-04-02T07:54:12.254Z,75.1806
2023-04-02T07:55:13.672Z,74.4176
2023-04-02T07:56:15.104Z,73.9791
2023-04-02T07:57:16.556Z,72.8226
2023-04-02T07:58:17.975Z,72.9371
2023-04-02T07:59:19.442Z,73.2263
2023-04-02T08:00:20.860Z,72.9947
2023-04-02T08:01:22.279Z,73.6355
2023-04-02T08:02:23.703Z,74.4188
2023-04-02T08:03:25.318Z,74.8373
2023-04-02T08:04:26.845Z,74.8215
2023-04-02T08:05:28.331Z,74.8513
2023-04-02T08:06:29.776Z,75.5013
2023-04-02T08:07:31.229Z,75.0783
2023-04-02T08:08:32.685Z,74.5119
2023-04-02T08:09:34.123Z,74.2956
2023-04-02T08:10:35.639Z,74.8992
2023-04-02T08:11:37.154Z,74.6813
2023-04-02T08:12:38.678Z,74.3827
2023-04-02T08:13:40.131Z,74.7604
2023-04-02T08:14:41.639Z,74.1707
2023-04-02T08:15:43.028Z,74.5411
2023-04-02T08:16:44.586Z,75.4827
2023-04-02T08:17:46.029Z,75.8418
2023-04-02T08:18:47.473Z,75.2211
2023-04-02T08:19:55.130Z,74.3737
2023-04-02T08:20:49.011Z,74.3414
2023-04-02T08:21:50.466Z,74.3971
2023-04-02T08:22:51.945Z,74.5009
2023-04-02T08:23:53.371Z,74.6039
2023-04-02T08:24:54.912Z,75.3724
2023-04-02T08:25:56.366Z,75.6450
2023-04-02T08:26:57.847Z,76.2017
2023-04-02T08:27:59.292Z,76.5048
2023-04-02T08:29:00.853Z,76.2069
2023-04-02T08:30:02.316Z,75.5591
2023-04-02T08:31:03.853Z,74.9947
2023-04-02T08:32:05.276Z,75.3038
2023-04-02T08:33:06.768Z,75.2612
2023-04-02T08:34:08.195Z,75.6902
2023-04-02T08:35:09.731Z,75.8601
2023-04-02T08:36:11.304Z,75.3812
2023-04-02T08:37:12.733Z,74.9997
2023-04-02T08:38:14.140Z,74.8580
2023-04-02T08:39:15.586Z,75.6253
2023-04-02T08:40:17.023Z,75.1706
2023-04-02T08:41:18.571Z,75.4108
2023-04-02T08:42:19.984Z,75.0010
2023-04-02T08:43:23.109Z,75.2206
2023-04-02T08:44:22.973Z,75.0270
2023-04-02T08:45:25.595Z,74.7790
2023-04-02T08:46:24.918Z,74.6200
2023-04-02T08:47:26.420Z,74.4972
2023-04-02T08:48:27.841Z,74.1601
2023-04-02T08:49:29.322Z,74.4339
2023-04-02T08:50:30.861Z,74.7381
2023-04-02T08:51:32.302Z,74.9422
2023-04-02T08:52:33.740Z,74.5802
2023-04-02T08:53:35.206Z,74.7035
2023-04-02T08:54:36.676Z,74.5516
2023-04-02T08:55:38.240Z,75.1371
2023-04-02T08:56:39.737Z,74.8090
2023-04-02T08:57:41.182Z,74.2081
2023-04-02T08:58:42.610Z,74.1329
2023-04-02T08:59:44.107Z,74.0359
2023-04-02T09:00:45.562Z,74.0207
2023-04-02T09:01:47.031Z,73.4288
2023-04-02T09:02:48.480Z,73.0475
2023-04-02T09:03:49.916Z,73.1951
2023-04-02T09:04:51.439Z,73.2622
2023-04-02T09:05:52.933Z,73.4945
2023-04-02T09:06:54.369Z,73.9864
2023-04-02T09:07:55.811Z,74.3196
2023-04-02T09:08:57.267Z,74.4264
2023-04-02T09:09:58.836Z,74.5854
2023-04-02T09:11:00.306Z,74.4172
2023-04-02T09:12:01.803Z,73.9212
2023-04-02T09:13:03.198Z,73.7641
2023-04-02T09:14:04.747Z,73.6760
2023-04-02T09:15:06.214Z,73.0883
2023-04-02T09:16:07.792Z,72.9229
2023-04-02T09:17:09.251Z,73.5058
2023-04-02T09:18:10.741Z,73.1095
2023-04-02T09:19:12.166Z,73.1989
2023-04-02T09:20:13.661Z,72.8165
2023-04-02T09:21:15.112Z,72.6505
2023-04-02T09:22:16.593Z,72.6941
2023-04-02T09:23:18.044Z,72.1438
2023-04-02T09:24:19.523Z,72.1343
2023-04-02T09:25:21.021Z,72.2006
2023-04-02T09:26:22.460Z,72.0805
2023-04-02T09:27:23.893Z,72.5156
2023-04-02T09:28:25.341Z,72.0630
2023-04-02T09:29:26.769Z,71.9688
2023-04-02T09:30:28.257Z,72.0439
2023-04-02T09:31:29.705Z,72.5516
2023-04-02T09:32:31.165Z,71.9330
2023-04-02T09:33:32.536Z,71.3594
2023-04-02T09:34:34.159Z,72.2927
2023-04-02T09:35:35.597Z,72.2237
2023-04-02T09:36:37.051Z,71.6161
2023-04-02T09:37:38.464Z,70.9169
2023-04-02T09:38:39.955Z,71.1579
2023-04-02T09:39:41.430Z,70.7445
2023-04-02T09:40:43.097Z,71.8623
2023-04-02T09:41:48.186Z,72.2687
2023-04-02T09:42:44.590Z,72.5463
2023-04-02T09:43:46.046Z,72.4587
2023-04-02T09:44:47.516Z,71.5731
2023-04-02T09:45:49.282Z,70.6667
2023-04-02T09:46:50.764Z,71.1307
2023-04-02T09:47:52.240Z,70.8235
2023-04-02T09:48:53.703Z,70.8764
2023-04-02T09:49:55.149Z,71.3415
2023-04-02T09:50:56.639Z,71.1517
2023-04-02T09:51:58.732Z,71.0631
2023-04-02T09:53:00.212Z,70.8841
2023-04-02T09:54:01.681Z,70.2243
2023-04-02T09:55:03.137Z,70.3408
2023-04-02T09:56:04.617Z,70.6343
2023-04-02T09:57:06.120Z,70.6674
2023-04-02T09:58:07.575Z,70.7030
2023-04-02T09:59:09.025Z,70.6855
2023-04-02T10:00:18.371Z,70.6197
2023-04-02T10:01:10.586Z,70.5538
2023-04-02T10:02:12.024Z,70.3930
2023-04-02T10:03:13.478Z,69.7676
2023-04-02T10:04:14.951Z,69.0039
2023-04-02T10:05:23.549Z,69.1612
2023-04-02T10:06:15.550Z,68.9417
2023-04-02T10:07:16.970Z,68.8085
2023-04-02T10:08:18.446Z,68.8060
2023-04-02T10:09:19.915Z,68.9952
2023-04-02T10:10:21.406Z,68.2465
2023-04-02T10:11:22.973Z,68.7058
2023-04-02T10:12:24.930Z,68.7079
2023-04-02T10:13:26.364Z,68.8658
2023-04-02T10:14:27.829Z,68.2060
2023-04-02T10:15:29.222Z,67.6921
2023-04-02T10:16:30.708Z,67.3334
2023-04-02T10:17:32.178Z,66.9731
2023-04-02T10:18:33.722Z,67.3385
2023-04-02T10:19:35.179Z,67.5500
2023-04-02T10:20:48.597Z,67.7310
2023-04-02T10:21:36.653Z,67.8637
2023-04-02T10:22:38.117Z,67.8893
2023-04-02T10:23:39.591Z,68.0400
2023-04-02T10:24:41.052Z,67.9627
2023-04-02T10:25:42.508Z,67.0661
2023-04-02T10:26:43.990Z,66.4342
2023-04-02T10:27:45.402Z,66.5334
2023-04-02T10:28:46.895Z,67.1007
2023-04-02T10:29:48.331Z,66.8503
2023-04-02T10:30:49.814Z,66.5504
2023-04-02T10:31:51.231Z,66.4705
2023-04-02T10:32:52.728Z,66.3761
2023-04-02T10:33:54.189Z,66.5762
2023-04-02T10:34:55.622Z,66.1470
2023-04-02T10:35:57.123Z,66.4828
2023-04-02T10:36:58.541Z,66.6311
2023-04-02T10:37:59.994Z,66.5152
2023-04-02T10:39:01.414Z,66.4497
2023-04-02T10:40:02.845Z,66.4164
2023-04-02T10:41:04.324Z,66.7600
2023-04-02T10:42:05.723Z,67.3063
2023-04-02T10:43:07.181Z,67.2808
2023-04-02T10:44:18.998Z,68.0007
2023-04-02T10:45:08.707Z,68.2104
2023-04-02T10:46:10.205Z,67.1377
2023-04-02T10:47:11.737Z,66.0909
2023-04-02T10:48:13.192Z,66.5519
2023-04-02T10:49:14.672Z,66.1855
2023-04-02T10:50:16.100Z,65.5716
2023-04-02T10:51:17.596Z,65.4500
2023-04-02T10:52:19.038Z,65.6817
2023-04-02T10:53:20.485Z,66.1814
2023-04-02T10:54:21.899Z,65.5850
2023-04-02T10:55:23.366Z,65.1209
2023-04-02T10:56:24.832Z,63.9502
2023-04-02T10:57:26.304Z,63.6163
2023-04-02T10:58:27.739Z,64.4268
2023-04-02T10:59:29.194Z,63.5841
2023-04-02T11:00:30.655Z,63.0018
2023-04-02T11:01:32.156Z,63.1035
2023-04-02T11:02:33.594Z,63.3399
2023-04-02T11:03:35.197Z,63.2551
2023-04-02T11:04:36.675Z,63.3487
2023-04-02T11:05:38.158Z,63.0594
2023-04-02T11:06:39.586Z,63.1852
2023-04-02T11:07:41.021Z,63.5990
2023-04-02T11:08:42.417Z,63.0955
2023-04-02T11:09:43.896Z,62.9886
2023-04-02T11:10:45.343Z,64.3526
2023-04-02T11:11:46.789Z,64.2031
2023-04-02T11:12:48.199Z,63.4382
2023-04-02T11:13:49.657Z,64.0472
2023-04-02T11:14:51.114Z,63.6283
2023-04-02T11:15:52.579Z,64.2648
2023-04-02T11:16:54.038Z,62.5230
2023-04-02T11:17:55.513Z,62.0915
2023-04-02T11:18:56.954Z,61.8510
2023-04-02T11:19:58.377Z,62.3426
2023-04-02T11:20:59.834Z,61.1459
2023-04-02T11:22:03.113Z,62.4878
2023-04-02T11:23:01.818Z,62.6736
2023-04-02T11:24:03.218Z,62.5472
2023-04-02T11:25:04.672Z,62.6702
2023-04-02T11:26:06.115Z,62.5051
2023-04-02T11:27:07.650Z,61.9557
2023-04-02T11:28:09.073Z,62.8313
2023-04-02T11:29:10.532Z,62.1117
2023-04-02T11:30:11.972Z,62.5685
2023-04-02T11:31:13.406Z,62.3135
2023-04-02T11:32:14.818Z,62.7348
2023-04-02T11:33:18.692Z,61.2246
2023-04-02T11:34:17.554Z,61.1234
2023-04-02T11:35:19.012Z,61.0316
2023-04-02T11:36:20.420Z,60.3719
2023-04-02T11:37:21.911Z,58.2269
2023-04-02T11:38:23.294Z,55.8002
2023-04-02T11:39:24.726Z,54.6965
2023-04-02T11:40:26.154Z,54.4261
2023-04-02T11:41:27.576Z,53.7242
2023-04-02T11:42:29.023Z,55.7090
2023-04-02T11:43:30.455Z,54.6836
2023-04-02T11:44:31.838Z,53.8430
2023-04-02T11:45:40.167Z,51.4220
2023-04-02T11:46:33.221Z,51.9792
2023-04-02T11:47:34.660Z,54.2176
2023-04-02T11:48:36.273Z,56.3162
2023-04-02T11:49:37.788Z,57.7285
2023-04-02T11:50:38.255Z,58.5389
2023-04-02T11:51:39.762Z,58.0486
2023-04-02T11:52:41.272Z,59.5328
2023-04-02T11:53:42.649Z,58.1561
2023-04-02T11:54:44.074Z,58.3851
2023-04-02T11:55:45.418Z,57.9166
2023-04-02T11:56:46.793Z,59.4423
2023-04-02T11:57:48.176Z,59.5984
2023-04-02T11:58:49.527Z,60.5293
2023-04-02T11:59:50.863Z,62.0464
2023-04-02T12:00:52.267Z,61.4509
2023-04-02T12:01:53.633Z,60.3809
2023-04-02T12:02:55.016Z,58.9106
2023-04-02T12:03:56.396Z,59.6862
2023-04-02T12:04:57.721Z,60.8821
2023-04-02T12:05:59.082Z,60.8511
2023-04-02T12:07:00.463Z,61.7393
2023-04-02T12:08:01.830Z,62.3812
2023-04-02T12:09:03.271Z,62.4220
2023-04-02T12:10:04.639Z,62.0251
2023-04-02T12:11:06.016Z,62.2691
2023-04-02T12:12:07.398Z,62.2989
2023-04-02T12:13:08.795Z,62.0341
2023-04-02T12:14:10.177Z,62.3489
2023-04-02T12:15:10.165Z,62.7873
2023-04-02T12:16:11.558Z,63.6652
2023-04-02T12:17:13.091Z,63.5015
2023-04-02T12:18:14.583Z,63.1645
2023-04-02T12:19:15.968Z,63.0796
2023-04-02T12:20:17.386Z,63.5225
2023-04-02T12:21:18.795Z,63.0666
2023-04-02T12:22:20.344Z,62.1056
2023-04-02T12:23:21.745Z,62.0482